sensor_id;sensor_type;location;lat;lon;timestamp;P1;durP1;ratioP1;P2;durP2;ratioP2
25045;SDS011;13044;49.304;12.840;2023-07-13T00:01:53;5.65;;;4.50;;
25045;SDS011;13044;49.304;12.840;2023-07-13T00:04:21;5.35;;;3.88;;
25045;SDS011;13044;49.304;12.840;2023-07-13T00:06:51;6.38;;;3.83;;
25045;SDS011;13044;49.304;12.840;2023-07-13T00:09:19;5.20;;;3.70;;
25045;SDS011;13044;49.304;12.840;2023-07-13T00:11:51;5.05;;;3.80;;
25045;SDS011;13044;49.304;12.840;2023-07-13T00:14:22;5.05;;;3.83;;
25045;SDS011;13044;49.304;12.840;2023-07-13T00:16:51;4.30;;;3.90;;
25045;SDS011;13044;49.304;12.840;2023-07-13T00:19:18;3.67;;;3.20;;
25045;SDS011;13044;49.304;12.840;2023-07-13T00:21:45;3.67;;;3.38;;
25045;SDS011;13044;49.304;12.840;2023-07-13T00:24:14;4.28;;;3.60;;
25045;SDS011;13044;49.304;12.840;2023-07-13T00:26:48;4.13;;;3.58;;
25045;SDS011;13044;49.304;12.840;2023-07-13T00:29:15;3.42;;;3.13;;
25045;SDS011;13044;49.304;12.840;2023-07-13T00:31:42;3.92;;;3.53;;
25045;SDS011;13044;49.304;12.840;2023-07-13T00:34:10;3.92;;;3.38;;
25045;SDS011;13044;49.304;12.840;2023-07-13T00:36:37;3.70;;;3.38;;
25045;SDS011;13044;49.304;12.840;2023-07-13T00:39:04;4.78;;;4.13;;
25045;SDS011;13044;49.304;12.840;2023-07-13T00:41:32;4.20;;;3.80;;
25045;SDS011;13044;49.304;12.840;2023-07-13T00:43:59;4.55;;;3.80;;
25045;SDS011;13044;49.304;12.840;2023-07-13T00:46:27;6.35;;;3.75;;
25045;SDS011;13044;49.304;12.840;2023-07-13T00:48:59;4.03;;;3.58;;
25045;SDS011;13044;49.304;12.840;2023-07-13T00:51:32;5.60;;;4.10;;
25045;SDS011;13044;49.304;12.840;2023-07-13T00:54:07;7.03;;;3.40;;
25045;SDS011;13044;49.304;12.840;2023-07-13T00:56:39;3.85;;;3.45;;
25045;SDS011;13044;49.304;12.840;2023-07-13T00:59:08;4.03;;;3.63;;
25045;SDS011;13044;49.304;12.840;2023-07-13T01:01:37;4.07;;;3.42;;
25045;SDS011;13044;49.304;12.840;2023-07-13T01:04:05;3.58;;;3.25;;
25045;SDS011;13044;49.304;12.840;2023-07-13T01:06:35;4.00;;;3.60;;
25045;SDS011;13044;49.304;12.840;2023-07-13T01:09:04;3.67;;;3.35;;
25045;SDS011;13044;49.304;12.840;2023-07-13T01:11:33;4.93;;;3.63;;
25045;SDS011;13044;49.304;12.840;2023-07-13T01:14:01;4.15;;;3.75;;
25045;SDS011;13044;49.304;12.840;2023-07-13T01:16:30;5.20;;;3.45;;
25045;SDS011;13044;49.304;12.840;2023-07-13T01:19:00;5.38;;;4.03;;
25045;SDS011;13044;49.304;12.840;2023-07-13T01:21:28;3.90;;;3.40;;
25045;SDS011;13044;49.304;12.840;2023-07-13T01:23:58;5.25;;;3.83;;
25045;SDS011;13044;49.304;12.840;2023-07-13T01:26:26;3.65;;;3.35;;
25045;SDS011;13044;49.304;12.840;2023-07-13T01:28:53;4.93;;;3.67;;
25045;SDS011;13044;49.304;12.840;2023-07-13T01:31:22;3.78;;;3.47;;
25045;SDS011;13044;49.304;12.840;2023-07-13T01:33:49;4.93;;;3.80;;
25045;SDS011;13044;49.304;12.840;2023-07-13T01:36:16;3.97;;;3.15;;
25045;SDS011;13044;49.304;12.840;2023-07-13T01:38:43;5.03;;;3.90;;
25045;SDS011;13044;49.304;12.840;2023-07-13T01:41:10;5.68;;;3.63;;
25045;SDS011;13044;49.304;12.840;2023-07-13T01:43:38;6.43;;;3.60;;
25045;SDS011;13044;49.304;12.840;2023-07-13T01:46:05;3.60;;;3.30;;
25045;SDS011;13044;49.304;12.840;2023-07-13T01:48:48;5.35;;;3.83;;
25045;SDS011;13044;49.304;12.840;2023-07-13T01:51:15;3.95;;;3.55;;
25045;SDS011;13044;49.304;12.840;2023-07-13T01:53:43;3.90;;;3.50;;
25045;SDS011;13044;49.304;12.840;2023-07-13T01:56:10;4.65;;;3.38;;
25045;SDS011;13044;49.304;12.840;2023-07-13T01:58:37;3.53;;;3.22;;
25045;SDS011;13044;49.304;12.840;2023-07-13T02:01:04;3.55;;;3.25;;
25045;SDS011;13044;49.304;12.840;2023-07-13T02:03:31;3.42;;;3.13;;
25045;SDS011;13044;49.304;12.840;2023-07-13T02:05:58;4.07;;;3.42;;
25045;SDS011;13044;49.304;12.840;2023-07-13T02:08:25;3.63;;;3.28;;
25045;SDS011;13044;49.304;12.840;2023-07-13T02:10:52;4.85;;;3.75;;
25045;SDS011;13044;49.304;12.840;2023-07-13T02:13:19;3.45;;;3.15;;
25045;SDS011;13044;49.304;12.840;2023-07-13T02:15:46;3.92;;;3.40;;
25045;SDS011;13044;49.304;12.840;2023-07-13T02:18:16;3.70;;;3.40;;
25045;SDS011;13044;49.304;12.840;2023-07-13T02:20:44;5.15;;;3.70;;
25045;SDS011;13044;49.304;12.840;2023-07-13T02:23:11;4.10;;;3.50;;
25045;SDS011;13044;49.304;12.840;2023-07-13T02:25:38;4.43;;;3.08;;
25045;SDS011;13044;49.304;12.840;2023-07-13T02:28:05;5.47;;;3.50;;
25045;SDS011;13044;49.304;12.840;2023-07-13T02:30:33;3.38;;;3.08;;
25045;SDS011;13044;49.304;12.840;2023-07-13T02:33:01;4.45;;;3.20;;
25045;SDS011;13044;49.304;12.840;2023-07-13T02:35:29;4.40;;;3.53;;
25045;SDS011;13044;49.304;12.840;2023-07-13T02:37:55;4.25;;;3.80;;
25045;SDS011;13044;49.304;12.840;2023-07-13T02:40:23;4.25;;;3.53;;
25045;SDS011;13044;49.304;12.840;2023-07-13T02:42:50;5.60;;;3.25;;
25045;SDS011;13044;49.304;12.840;2023-07-13T02:45:16;3.55;;;3.00;;
25045;SDS011;13044;49.304;12.840;2023-07-13T02:47:43;4.30;;;3.80;;
25045;SDS011;13044;49.304;12.840;2023-07-13T02:50:10;3.88;;;3.20;;
25045;SDS011;13044;49.304;12.840;2023-07-13T02:52:37;3.95;;;3.10;;
25045;SDS011;13044;49.304;12.840;2023-07-13T02:55:04;3.70;;;3.30;;
25045;SDS011;13044;49.304;12.840;2023-07-13T02:57:31;2.97;;;2.65;;
25045;SDS011;13044;49.304;12.840;2023-07-13T03:00:00;4.05;;;3.30;;
25045;SDS011;13044;49.304;12.840;2023-07-13T03:02:31;4.35;;;3.28;;
25045;SDS011;13044;49.304;12.840;2023-07-13T03:04:59;4.15;;;2.65;;
25045;SDS011;13044;49.304;12.840;2023-07-13T03:07:26;3.10;;;2.80;;
25045;SDS011;13044;49.304;12.840;2023-07-13T03:09:54;2.92;;;2.72;;
25045;SDS011;13044;49.304;12.840;2023-07-13T03:12:23;6.45;;;3.50;;
25045;SDS011;13044;49.304;12.840;2023-07-13T03:14:50;3.72;;;3.10;;
25045;SDS011;13044;49.304;12.840;2023-07-13T03:17:18;4.15;;;3.42;;
25045;SDS011;13044;49.304;12.840;2023-07-13T03:19:45;3.70;;;3.30;;
25045;SDS011;13044;49.304;12.840;2023-07-13T03:22:16;3.35;;;3.05;;
25045;SDS011;13044;49.304;12.840;2023-07-13T03:24:44;5.90;;;2.90;;
25045;SDS011;13044;49.304;12.840;2023-07-13T03:27:12;3.72;;;3.30;;
25045;SDS011;13044;49.304;12.840;2023-07-13T03:29:39;3.47;;;3.17;;
25045;SDS011;13044;49.304;12.840;2023-07-13T03:32:06;3.75;;;3.05;;
25045;SDS011;13044;49.304;12.840;2023-07-13T03:34:34;3.50;;;3.20;;
25045;SDS011;13044;49.304;12.840;2023-07-13T03:37:00;4.60;;;3.17;;
25045;SDS011;13044;49.304;12.840;2023-07-13T03:39:27;3.70;;;3.30;;
25045;SDS011;13044;49.304;12.840;2023-07-13T03:41:54;3.97;;;3.40;;
25045;SDS011;13044;49.304;12.840;2023-07-13T03:44:22;4.75;;;3.35;;
25045;SDS011;13044;49.304;12.840;2023-07-13T03:46:48;3.50;;;3.20;;
25045;SDS011;13044;49.304;12.840;2023-07-13T03:49:16;4.28;;;3.42;;
25045;SDS011;13044;49.304;12.840;2023-07-13T03:51:43;3.38;;;3.03;;
25045;SDS011;13044;49.304;12.840;2023-07-13T03:54:09;3.92;;;3.15;;
25045;SDS011;13044;49.304;12.840;2023-07-13T03:56:36;3.15;;;2.85;;
25045;SDS011;13044;49.304;12.840;2023-07-13T03:59:03;4.53;;;3.45;;
25045;SDS011;13044;49.304;12.840;2023-07-13T04:01:30;3.72;;;3.40;;
25045;SDS011;13044;49.304;12.840;2023-07-13T04:03:57;3.75;;;3.45;;
25045;SDS011;13044;49.304;12.840;2023-07-13T04:06:29;4.75;;;3.08;;
25045;SDS011;13044;49.304;12.840;2023-07-13T04:08:57;3.60;;;2.88;;
25045;SDS011;13044;49.304;12.840;2023-07-13T04:11:27;7.05;;;2.80;;
25045;SDS011;13044;49.304;12.840;2023-07-13T04:13:57;3.97;;;3.50;;
25045;SDS011;13044;49.304;12.840;2023-07-13T04:16:24;5.53;;;2.80;;
25045;SDS011;13044;49.304;12.840;2023-07-13T04:18:52;3.50;;;3.10;;
25045;SDS011;13044;49.304;12.840;2023-07-13T04:21:26;4.07;;;3.05;;
25045;SDS011;13044;49.304;12.840;2023-07-13T04:23:54;3.40;;;2.80;;
25045;SDS011;13044;49.304;12.840;2023-07-13T04:26:21;3.88;;;3.10;;
25045;SDS011;13044;49.304;12.840;2023-07-13T04:28:49;3.13;;;2.78;;
25045;SDS011;13044;49.304;12.840;2023-07-13T04:31:17;3.08;;;2.58;;
25045;SDS011;13044;49.304;12.840;2023-07-13T04:33:44;3.97;;;3.25;;
25045;SDS011;13044;49.304;12.840;2023-07-13T04:36:14;3.97;;;3.55;;
25045;SDS011;13044;49.304;12.840;2023-07-13T04:38:42;3.97;;;3.00;;
25045;SDS011;13044;49.304;12.840;2023-07-13T04:41:09;2.80;;;2.50;;
25045;SDS011;13044;49.304;12.840;2023-07-13T04:43:37;4.03;;;2.85;;
25045;SDS011;13044;49.304;12.840;2023-07-13T04:46:05;4.30;;;2.58;;
25045;SDS011;13044;49.304;12.840;2023-07-13T04:48:35;2.80;;;2.58;;
25045;SDS011;13044;49.304;12.840;2023-07-13T04:51:02;4.97;;;3.10;;
25045;SDS011;13044;49.304;12.840;2023-07-13T04:53:30;4.20;;;2.75;;
25045;SDS011;13044;49.304;12.840;2023-07-13T04:56:00;5.50;;;3.63;;
25045;SDS011;13044;49.304;12.840;2023-07-13T04:58:31;3.22;;;2.83;;
25045;SDS011;13044;49.304;12.840;2023-07-13T05:01:03;3.63;;;2.85;;
25045;SDS011;13044;49.304;12.840;2023-07-13T05:03:32;4.93;;;2.90;;
25045;SDS011;13044;49.304;12.840;2023-07-13T05:06:01;3.75;;;2.92;;
25045;SDS011;13044;49.304;12.840;2023-07-13T05:08:31;4.90;;;2.88;;
25045;SDS011;13044;49.304;12.840;2023-07-13T05:11:02;4.80;;;3.13;;
25045;SDS011;13044;49.304;12.840;2023-07-13T05:13:31;3.30;;;3.00;;
25045;SDS011;13044;49.304;12.840;2023-07-13T05:15:58;3.40;;;3.10;;
25045;SDS011;13044;49.304;12.840;2023-07-13T05:18:29;3.70;;;2.97;;
25045;SDS011;13044;49.304;12.840;2023-07-13T05:21:03;2.60;;;2.38;;
25045;SDS011;13044;49.304;12.840;2023-07-13T05:23:35;4.93;;;2.80;;
25045;SDS011;13044;49.304;12.840;2023-07-13T05:26:03;3.90;;;2.88;;
25045;SDS011;13044;49.304;12.840;2023-07-13T05:28:35;6.55;;;2.80;;
25045;SDS011;13044;49.304;12.840;2023-07-13T05:31:02;3.60;;;3.00;;
25045;SDS011;13044;49.304;12.840;2023-07-13T05:33:30;3.45;;;2.72;;
25045;SDS011;13044;49.304;12.840;2023-07-13T05:35:57;2.72;;;2.53;;
25045;SDS011;13044;49.304;12.840;2023-07-13T05:38:24;3.75;;;2.70;;
25045;SDS011;13044;49.304;12.840;2023-07-13T05:40:53;4.05;;;3.17;;
25045;SDS011;13044;49.304;12.840;2023-07-13T05:43:22;3.25;;;2.70;;
25045;SDS011;13044;49.304;12.840;2023-07-13T05:45:50;3.10;;;2.80;;
25045;SDS011;13044;49.304;12.840;2023-07-13T05:48:20;3.53;;;2.75;;
25045;SDS011;13044;49.304;12.840;2023-07-13T05:50:47;6.25;;;2.83;;
25045;SDS011;13044;49.304;12.840;2023-07-13T05:53:14;4.35;;;2.95;;
25045;SDS011;13044;49.304;12.840;2023-07-13T05:55:42;3.75;;;2.72;;
25045;SDS011;13044;49.304;12.840;2023-07-13T05:58:11;3.25;;;2.95;;
25045;SDS011;13044;49.304;12.840;2023-07-13T06:00:37;4.03;;;2.67;;
25045;SDS011;13044;49.304;12.840;2023-07-13T06:03:05;3.22;;;2.92;;
25045;SDS011;13044;49.304;12.840;2023-07-13T06:05:33;3.95;;;3.03;;
25045;SDS011;13044;49.304;12.840;2023-07-13T06:08:02;2.70;;;2.50;;
25045;SDS011;13044;49.304;12.840;2023-07-13T06:10:29;3.35;;;2.47;;
25045;SDS011;13044;49.304;12.840;2023-07-13T06:12:59;4.82;;;2.97;;
25045;SDS011;13044;49.304;12.840;2023-07-13T06:15:26;3.08;;;2.80;;
25045;SDS011;13044;49.304;12.840;2023-07-13T06:17:53;3.00;;;2.60;;
25045;SDS011;13044;49.304;12.840;2023-07-13T06:20:20;3.13;;;2.83;;
25045;SDS011;13044;49.304;12.840;2023-07-13T06:22:46;3.28;;;2.47;;
25045;SDS011;13044;49.304;12.840;2023-07-13T06:25:13;3.03;;;2.42;;
25045;SDS011;13044;49.304;12.840;2023-07-13T06:27:40;3.65;;;2.42;;
25045;SDS011;13044;49.304;12.840;2023-07-13T06:30:07;4.40;;;3.00;;
25045;SDS011;13044;49.304;12.840;2023-07-13T06:32:35;3.67;;;3.10;;
25045;SDS011;13044;49.304;12.840;2023-07-13T06:35:06;2.88;;;2.63;;
25045;SDS011;13044;49.304;12.840;2023-07-13T06:37:33;4.68;;;2.60;;
25045;SDS011;13044;49.304;12.840;2023-07-13T06:40:00;4.97;;;2.80;;
25045;SDS011;13044;49.304;12.840;2023-07-13T06:42:27;3.63;;;2.78;;
25045;SDS011;13044;49.304;12.840;2023-07-13T06:44:54;3.08;;;2.63;;
25045;SDS011;13044;49.304;12.840;2023-07-13T06:47:20;5.65;;;2.80;;
25045;SDS011;13044;49.304;12.840;2023-07-13T06:49:47;4.03;;;2.50;;
25045;SDS011;13044;49.304;12.840;2023-07-13T06:52:14;7.00;;;2.97;;
25045;SDS011;13044;49.304;12.840;2023-07-13T06:54:41;3.75;;;2.63;;
25045;SDS011;13044;49.304;12.840;2023-07-13T06:57:08;4.85;;;2.20;;
25045;SDS011;13044;49.304;12.840;2023-07-13T06:59:35;2.70;;;1.95;;
25045;SDS011;13044;49.304;12.840;2023-07-13T07:02:02;2.60;;;2.40;;
25045;SDS011;13044;49.304;12.840;2023-07-13T07:04:29;3.33;;;2.22;;
25045;SDS011;13044;49.304;12.840;2023-07-13T07:06:56;3.53;;;2.60;;
25045;SDS011;13044;49.304;12.840;2023-07-13T07:09:24;4.57;;;2.50;;
25045;SDS011;13044;49.304;12.840;2023-07-13T07:11:51;3.20;;;2.10;;
25045;SDS011;13044;49.304;12.840;2023-07-13T07:14:29;2.72;;;2.30;;
25045;SDS011;13044;49.304;12.840;2023-07-13T07:16:57;3.28;;;2.45;;
25045;SDS011;13044;49.304;12.840;2023-07-13T07:19:25;2.50;;;2.13;;
25045;SDS011;13044;49.304;12.840;2023-07-13T07:21:55;4.63;;;2.17;;
25045;SDS011;13044;49.304;12.840;2023-07-13T07:24:22;2.97;;;2.42;;
25045;SDS011;13044;49.304;12.840;2023-07-13T07:26:49;3.10;;;2.15;;
25045;SDS011;13044;49.304;12.840;2023-07-13T07:29:19;2.25;;;1.90;;
25045;SDS011;13044;49.304;12.840;2023-07-13T07:31:48;1.92;;;1.83;;
25045;SDS011;13044;49.304;12.840;2023-07-13T07:36:59;2.30;;;2.08;;
25045;SDS011;13044;49.304;12.840;2023-07-13T07:39:30;2.55;;;1.70;;
25045;SDS011;13044;49.304;12.840;2023-07-13T07:41:57;2.50;;;1.95;;
25045;SDS011;13044;49.304;12.840;2023-07-13T07:44:24;2.58;;;2.10;;
25045;SDS011;13044;49.304;12.840;2023-07-13T07:46:53;2.03;;;1.67;;
25045;SDS011;13044;49.304;12.840;2023-07-13T07:49:20;2.35;;;1.60;;
25045;SDS011;13044;49.304;12.840;2023-07-13T07:51:47;1.88;;;1.77;;
25045;SDS011;13044;49.304;12.840;2023-07-13T07:54:14;1.80;;;1.70;;
25045;SDS011;13044;49.304;12.840;2023-07-13T07:56:55;4.45;;;2.10;;
25045;SDS011;13044;49.304;12.840;2023-07-13T07:59:24;2.45;;;1.77;;
25045;SDS011;13044;49.304;12.840;2023-07-13T08:01:54;1.88;;;1.73;;
25045;SDS011;13044;49.304;12.840;2023-07-13T08:04:24;3.22;;;1.80;;
25045;SDS011;13044;49.304;12.840;2023-07-13T08:06:54;2.55;;;2.05;;
25045;SDS011;13044;49.304;12.840;2023-07-13T08:09:22;2.33;;;1.75;;
25045;SDS011;13044;49.304;12.840;2023-07-13T08:11:49;2.67;;;1.80;;
25045;SDS011;13044;49.304;12.840;2023-07-13T08:14:21;1.90;;;1.70;;
25045;SDS011;13044;49.304;12.840;2023-07-13T08:16:48;1.58;;;1.48;;
25045;SDS011;13044;49.304;12.840;2023-07-13T08:19:15;2.05;;;1.60;;
25045;SDS011;13044;49.304;12.840;2023-07-13T08:21:42;2.95;;;1.90;;
25045;SDS011;13044;49.304;12.840;2023-07-13T08:24:09;1.48;;;1.35;;
25045;SDS011;13044;49.304;12.840;2023-07-13T08:26:36;2.33;;;1.52;;
25045;SDS011;13044;49.304;12.840;2023-07-13T08:29:04;3.10;;;1.60;;
25045;SDS011;13044;49.304;12.840;2023-07-13T08:31:30;1.85;;;1.70;;
25045;SDS011;13044;49.304;12.840;2023-07-13T08:33:58;1.83;;;1.45;;
25045;SDS011;13044;49.304;12.840;2023-07-13T08:36:25;1.33;;;1.23;;
25045;SDS011;13044;49.304;12.840;2023-07-13T08:38:53;1.65;;;1.55;;
25045;SDS011;13044;49.304;12.840;2023-07-13T08:41:21;2.08;;;1.60;;
25045;SDS011;13044;49.304;12.840;2023-07-13T08:43:49;1.45;;;1.30;;
25045;SDS011;13044;49.304;12.840;2023-07-13T08:46:34;3.65;;;1.40;;
25045;SDS011;13044;49.304;12.840;2023-07-13T08:49:18;2.53;;;1.67;;
25045;SDS011;13044;49.304;12.840;2023-07-13T08:52:00;4.35;;;1.70;;
25045;SDS011;13044;49.304;12.840;2023-07-13T08:54:53;2.50;;;2.10;;
25045;SDS011;13044;49.304;12.840;2023-07-13T08:57:24;2.53;;;1.67;;
25045;SDS011;13044;49.304;12.840;2023-07-13T08:59:58;1.85;;;1.48;;
25045;SDS011;13044;49.304;12.840;2023-07-13T09:02:26;2.78;;;1.70;;
25045;SDS011;13044;49.304;12.840;2023-07-13T09:05:22;2.60;;;1.63;;
25045;SDS011;13044;49.304;12.840;2023-07-13T09:10:37;2.10;;;1.67;;
25045;SDS011;13044;49.304;12.840;2023-07-13T09:16:01;3.92;;;1.67;;
25045;SDS011;13044;49.304;12.840;2023-07-13T09:18:33;2.10;;;1.38;;
25045;SDS011;13044;49.304;12.840;2023-07-13T09:21:08;4.38;;;1.70;;
25045;SDS011;13044;49.304;12.840;2023-07-13T09:23:41;1.95;;;1.40;;
25045;SDS011;13044;49.304;12.840;2023-07-13T09:26:14;4.32;;;1.60;;
25045;SDS011;13044;49.304;12.840;2023-07-13T09:28:47;1.60;;;1.48;;
25045;SDS011;13044;49.304;12.840;2023-07-13T09:31:23;2.05;;;1.85;;
25045;SDS011;13044;49.304;12.840;2023-07-13T09:34:00;4.32;;;1.60;;
25045;SDS011;13044;49.304;12.840;2023-07-13T09:36:28;1.85;;;1.35;;
25045;SDS011;13044;49.304;12.840;2023-07-13T09:41:39;1.80;;;1.50;;
25045;SDS011;13044;49.304;12.840;2023-07-13T09:44:30;3.88;;;1.40;;
25045;SDS011;13044;49.304;12.840;2023-07-13T09:47:01;6.68;;;2.35;;
25045;SDS011;13044;49.304;12.840;2023-07-13T09:49:33;3.83;;;1.50;;
25045;SDS011;13044;49.304;12.840;2023-07-13T09:52:03;1.65;;;1.45;;
25045;SDS011;13044;49.304;12.840;2023-07-13T09:54:34;1.90;;;1.40;;
25045;SDS011;13044;49.304;12.840;2023-07-13T09:57:03;2.47;;;1.60;;
25045;SDS011;13044;49.304;12.840;2023-07-13T09:59:40;2.53;;;1.42;;
25045;SDS011;13044;49.304;12.840;2023-07-13T10:02:26;2.13;;;1.42;;
25045;SDS011;13044;49.304;12.840;2023-07-13T10:05:06;2.42;;;1.38;;
25045;SDS011;13044;49.304;12.840;2023-07-13T10:07:40;1.40;;;1.17;;
25045;SDS011;13044;49.304;12.840;2023-07-13T10:10:14;2.15;;;1.40;;
25045;SDS011;13044;49.304;12.840;2023-07-13T10:12:50;1.77;;;1.10;;
25045;SDS011;13044;49.304;12.840;2023-07-13T10:15:21;1.45;;;1.30;;
25045;SDS011;13044;49.304;12.840;2023-07-13T10:17:53;2.33;;;1.52;;
25045;SDS011;13044;49.304;12.840;2023-07-13T10:20:25;1.40;;;1.30;;
25045;SDS011;13044;49.304;12.840;2023-07-13T10:22:54;1.35;;;1.13;;
25045;SDS011;13044;49.304;12.840;2023-07-13T10:25:31;1.95;;;1.50;;
25045;SDS011;13044;49.304;12.840;2023-07-13T10:30:53;3.13;;;1.50;;
25045;SDS011;13044;49.304;12.840;2023-07-13T10:33:25;3.80;;;1.20;;
25045;SDS011;13044;49.304;12.840;2023-07-13T10:35:55;2.22;;;1.40;;
25045;SDS011;13044;49.304;12.840;2023-07-13T10:38:44;1.27;;;1.17;;
25045;SDS011;13044;49.304;12.840;2023-07-13T10:41:20;1.95;;;1.25;;
25045;SDS011;13044;49.304;12.840;2023-07-13T10:43:53;1.55;;;1.08;;
25045;SDS011;13044;49.304;12.840;2023-07-13T10:46:24;1.75;;;1.40;;
25045;SDS011;13044;49.304;12.840;2023-07-13T10:49:01;3.95;;;1.33;;
25045;SDS011;13044;49.304;12.840;2023-07-13T10:51:31;1.13;;;1.02;;
25045;SDS011;13044;49.304;12.840;2023-07-13T10:54:14;2.10;;;1.40;;
25045;SDS011;13044;49.304;12.840;2023-07-13T10:56:46;2.95;;;1.65;;
25045;SDS011;13044;49.304;12.840;2023-07-13T10:59:18;1.40;;;1.13;;
25045;SDS011;13044;49.304;12.840;2023-07-13T11:02:00;3.13;;;1.38;;
25045;SDS011;13044;49.304;12.840;2023-07-13T11:04:40;1.70;;;1.40;;
25045;SDS011;13044;49.304;12.840;2023-07-13T11:09:58;5.38;;;1.60;;
25045;SDS011;13044;49.304;12.840;2023-07-13T11:12:53;2.58;;;1.23;;
25045;SDS011;13044;49.304;12.840;2023-07-13T11:15:27;2.25;;;1.35;;
25045;SDS011;13044;49.304;12.840;2023-07-13T11:18:10;1.83;;;1.17;;
25045;SDS011;13044;49.304;12.840;2023-07-13T11:20:48;1.95;;;1.50;;
25045;SDS011;13044;49.304;12.840;2023-07-13T11:25:43;2.42;;;1.50;;
25045;SDS011;13044;49.304;12.840;2023-07-13T11:30:43;2.40;;;1.40;;
25045;SDS011;13044;49.304;12.840;2023-07-13T11:33:17;2.55;;;1.45;;
25045;SDS011;13044;49.304;12.840;2023-07-13T11:35:58;1.38;;;1.27;;
25045;SDS011;13044;49.304;12.840;2023-07-13T11:41:14;1.88;;;1.25;;
25045;SDS011;13044;49.304;12.840;2023-07-13T11:43:49;2.60;;;1.40;;
25045;SDS011;13044;49.304;12.840;2023-07-13T11:46:21;1.83;;;1.15;;
25045;SDS011;13044;49.304;12.840;2023-07-13T11:48:52;1.23;;;1.20;;
25045;SDS011;13044;49.304;12.840;2023-07-13T11:54:03;2.90;;;1.20;;
25045;SDS011;13044;49.304;12.840;2023-07-13T11:56:36;2.00;;;1.27;;
25045;SDS011;13044;49.304;12.840;2023-07-13T11:59:04;1.50;;;1.35;;
25045;SDS011;13044;49.304;12.840;2023-07-13T12:01:34;1.70;;;1.00;;
25045;SDS011;13044;49.304;12.840;2023-07-13T12:04:15;2.92;;;1.30;;
25045;SDS011;13044;49.304;12.840;2023-07-13T12:06:54;1.27;;;1.17;;
25045;SDS011;13044;49.304;12.840;2023-07-13T12:09:26;1.70;;;1.40;;
25045;SDS011;13044;49.304;12.840;2023-07-13T12:11:55;2.30;;;1.25;;
25045;SDS011;13044;49.304;12.840;2023-07-13T12:14:27;2.30;;;1.25;;
25045;SDS011;13044;49.304;12.840;2023-07-13T12:16:55;1.65;;;1.25;;
25045;SDS011;13044;49.304;12.840;2023-07-13T12:19:23;3.75;;;1.30;;
25045;SDS011;13044;49.304;12.840;2023-07-13T12:21:57;2.45;;;1.35;;
25045;SDS011;13044;49.304;12.840;2023-07-13T12:24:26;1.65;;;1.25;;
25045;SDS011;13044;49.304;12.840;2023-07-13T12:27:04;3.30;;;1.20;;
25045;SDS011;13044;49.304;12.840;2023-07-13T12:29:32;2.10;;;1.58;;
25045;SDS011;13044;49.304;12.840;2023-07-13T12:31:59;1.38;;;1.15;;
25045;SDS011;13044;49.304;12.840;2023-07-13T12:34:26;1.77;;;1.38;;
25045;SDS011;13044;49.304;12.840;2023-07-13T12:37:01;2.55;;;1.55;;
25045;SDS011;13044;49.304;12.840;2023-07-13T12:39:43;3.30;;;1.25;;
25045;SDS011;13044;49.304;12.840;2023-07-13T12:42:18;2.17;;;1.38;;
25045;SDS011;13044;49.304;12.840;2023-07-13T12:45:05;2.10;;;1.20;;
25045;SDS011;13044;49.304;12.840;2023-07-13T12:47:48;1.55;;;1.13;;
25045;SDS011;13044;49.304;12.840;2023-07-13T12:50:22;1.30;;;1.20;;
25045;SDS011;13044;49.304;12.840;2023-07-13T12:52:54;4.93;;;1.38;;
25045;SDS011;13044;49.304;12.840;2023-07-13T12:55:29;2.08;;;1.30;;
25045;SDS011;13044;49.304;12.840;2023-07-13T12:58:02;1.83;;;1.17;;
25045;SDS011;13044;49.304;12.840;2023-07-13T13:00:32;2.00;;;1.30;;
25045;SDS011;13044;49.304;12.840;2023-07-13T13:03:05;1.20;;;1.10;;
25045;SDS011;13044;49.304;12.840;2023-07-13T13:05:59;1.20;;;1.10;;
25045;SDS011;13044;49.304;12.840;2023-07-13T13:08:42;10.85;;;1.20;;
25045;SDS011;13044;49.304;12.840;2023-07-13T13:11:10;2.55;;;1.10;;
25045;SDS011;13044;49.304;12.840;2023-07-13T13:13:37;1.85;;;1.30;;
25045;SDS011;13044;49.304;12.840;2023-07-13T13:16:16;2.97;;;1.33;;
25045;SDS011;13044;49.304;12.840;2023-07-13T13:19:16;2.33;;;1.30;;
25045;SDS011;13044;49.304;12.840;2023-07-13T13:21:45;1.30;;;1.15;;
25045;SDS011;13044;49.304;12.840;2023-07-13T13:24:17;3.75;;;1.30;;
25045;SDS011;13044;49.304;12.840;2023-07-13T13:26:47;1.10;;;1.00;;
25045;SDS011;13044;49.304;12.840;2023-07-13T13:29:18;6.75;;;1.52;;
25045;SDS011;13044;49.304;12.840;2023-07-13T13:31:47;1.55;;;1.13;;
25045;SDS011;13044;49.304;12.840;2023-07-13T13:34:15;1.02;;;0.98;;
25045;SDS011;13044;49.304;12.840;2023-07-13T13:36:43;1.90;;;1.40;;
25045;SDS011;13044;49.304;12.840;2023-07-13T13:41:49;3.33;;;1.52;;
25045;SDS011;13044;49.304;12.840;2023-07-13T13:44:19;1.48;;;1.00;;
25045;SDS011;13044;49.304;12.840;2023-07-13T13:46:48;1.83;;;1.05;;
25045;SDS011;13044;49.304;12.840;2023-07-13T13:49:20;1.77;;;1.20;;
25045;SDS011;13044;49.304;12.840;2023-07-13T13:51:51;1.37;;;1.17;;
25045;SDS011;13044;49.304;12.840;2023-07-13T13:54:19;3.55;;;1.30;;
25045;SDS011;13044;49.304;12.840;2023-07-13T13:56:49;1.10;;;1.00;;
25045;SDS011;13044;49.304;12.840;2023-07-13T13:59:18;2.00;;;1.20;;
25045;SDS011;13044;49.304;12.840;2023-07-13T14:01:45;1.05;;;0.95;;
25045;SDS011;13044;49.304;12.840;2023-07-13T14:04:19;2.92;;;1.15;;
25045;SDS011;13044;49.304;12.840;2023-07-13T14:06:48;1.10;;;1.10;;
25045;SDS011;13044;49.304;12.840;2023-07-13T14:09:17;1.75;;;1.08;;
25045;SDS011;13044;49.304;12.840;2023-07-13T14:11:46;1.60;;;1.15;;
25045;SDS011;13044;49.304;12.840;2023-07-13T14:14:17;1.98;;;1.20;;
25045;SDS011;13044;49.304;12.840;2023-07-13T14:16:48;2.00;;;1.20;;
25045;SDS011;13044;49.304;12.840;2023-07-13T14:19:20;1.35;;;1.08;;
25045;SDS011;13044;49.304;12.840;2023-07-13T14:21:48;1.52;;;1.20;;
25045;SDS011;13044;49.304;12.840;2023-07-13T14:24:16;1.80;;;1.02;;
25045;SDS011;13044;49.304;12.840;2023-07-13T14:26:43;1.98;;;1.38;;
25045;SDS011;13044;49.304;12.840;2023-07-13T14:29:13;1.67;;;1.15;;
25045;SDS011;13044;49.304;12.840;2023-07-13T14:31:49;1.85;;;1.35;;
25045;SDS011;13044;49.304;12.840;2023-07-13T14:34:16;1.40;;;1.27;;
25045;SDS011;13044;49.304;12.840;2023-07-13T14:36:48;1.60;;;1.35;;
25045;SDS011;13044;49.304;12.840;2023-07-13T14:41:48;1.70;;;1.13;;
25045;SDS011;13044;49.304;12.840;2023-07-13T14:44:20;1.17;;;1.10;;
25045;SDS011;13044;49.304;12.840;2023-07-13T14:46:52;1.50;;;1.10;;
25045;SDS011;13044;49.304;12.840;2023-07-13T14:49:29;1.35;;;1.10;;
25045;SDS011;13044;49.304;12.840;2023-07-13T14:54:44;1.13;;;0.80;;
25045;SDS011;13044;49.304;12.840;2023-07-13T14:57:12;1.35;;;1.25;;
25045;SDS011;13044;49.304;12.840;2023-07-13T14:59:47;1.20;;;1.10;;
25045;SDS011;13044;49.304;12.840;2023-07-13T15:02:29;2.75;;;1.40;;
25045;SDS011;13044;49.304;12.840;2023-07-13T15:05:00;1.67;;;1.10;;
25045;SDS011;13044;49.304;12.840;2023-07-13T15:07:28;1.38;;;1.27;;
25045;SDS011;13044;49.304;12.840;2023-07-13T15:09:55;2.00;;;1.30;;
25045;SDS011;13044;49.304;12.840;2023-07-13T15:12:22;1.20;;;1.08;;
25045;SDS011;13044;49.304;12.840;2023-07-13T15:14:49;1.52;;;1.20;;
25045;SDS011;13044;49.304;12.840;2023-07-13T15:17:38;2.28;;;1.02;;
25045;SDS011;13044;49.304;12.840;2023-07-13T15:20:27;1.80;;;1.17;;
25045;SDS011;13044;49.304;12.840;2023-07-13T15:22:59;1.30;;;1.10;;
25045;SDS011;13044;49.304;12.840;2023-07-13T15:25:28;2.22;;;1.00;;
25045;SDS011;13044;49.304;12.840;2023-07-13T15:28:00;1.90;;;1.48;;